Time;durP1;ratioP1;P1;durP2;ratioP2;P2;SDS_P1;SDS_P2;PMS_P1;PMS_P2;Temp;Humidity;BMP_temperature;BMP_pressure;BME280_temperature;BME280_humidity;BME280_pressure;Samples;Min_cycle;Max_cycle;Signal;HPM_P1;HPM_P2
2023/05/02 00:00:41;;;;;;;22.70;13.40;;;11.20;99.90;;;;;;5021654;28;20039;-82
2023/05/02 00:03:07;;;;;;;21.87;13.27;;;11.10;99.90;;;;;;5036366;28;20476;-81
2023/05/02 00:05:33;;;;;;;23.77;13.70;;;11.10;99.90;;;;;;5055470;28;20033;-82
2023/05/02 00:07:59;;;;;;;24.13;14.03;;;11.00;99.90;;;;;;5035272;28;20341;-80
2023/05/02 00:10:25;;;;;;;21.70;13.83;;;11.00;99.90;;;;;;5055245;28;20036;-82
2023/05/02 00:12:51;;;;;;;23.20;12.50;;;10.90;99.90;;;;;;5038486;28;20049;-82
2023/05/02 00:15:16;;;;;;;24.80;12.77;;;10.90;99.90;;;;;;5038359;28;20040;-81
2023/05/02 00:17:42;;;;;;;25.17;13.10;;;10.80;99.90;;;;;;5005430;28;20044;-81
2023/05/02 00:20:10;;;;;;;28.97;13.33;;;10.80;99.90;;;;;;5039176;28;20114;-83
2023/05/02 00:22:36;;;;;;;18.63;10.90;;;10.70;99.90;;;;;;5039039;28;20051;-83
2023/05/02 00:25:02;;;;;;;24.27;10.37;;;10.70;99.90;;;;;;5054820;28;20048;-83
2023/05/02 00:27:30;;;;;;;16.73;9.80;;;10.60;99.90;;;;;;5037614;28;20049;-81
2023/05/02 00:29:57;;;;;;;14.17;8.87;;;10.60;99.90;;;;;;5054548;28;20038;-83
2023/05/02 00:32:22;;;;;;;15.73;8.37;;;10.60;99.90;;;;;;5021883;28;20404;-82
2023/05/02 00:34:48;;;;;;;13.20;7.93;;;10.50;99.90;;;;;;5021852;28;20036;-84
2023/05/02 00:37:14;;;;;;;13.60;7.20;;;10.50;99.90;;;;;;5037876;28;20411;-80
2023/05/02 00:39:39;;;;;;;10.47;6.60;;;10.50;99.90;;;;;;5038060;28;20072;-80
2023/05/02 00:42:05;;;;;;;10.20;5.50;;;10.40;99.90;;;;;;5021667;28;20079;-84
2023/05/02 00:44:31;;;;;;;9.47;4.87;;;10.30;99.90;;;;;;5021818;28;20048;-83
2023/05/02 00:46:57;;;;;;;9.27;5.40;;;10.30;99.90;;;;;;5021467;28;20040;-82
2023/05/02 00:49:23;;;;;;;7.80;4.30;;;10.30;99.90;;;;;;5044905;28;20048;-83
2023/05/02 00:51:49;;;;;;;6.77;4.23;;;10.20;99.90;;;;;;5038040;28;20044;-83
2023/05/02 00:54:15;;;;;;;5.10;3.97;;;10.20;99.90;;;;;;5037765;28;20037;-83
2023/05/02 00:56:41;;;;;;;6.40;4.30;;;10.10;99.90;;;;;;5037285;28;20403;-84
2023/05/02 00:59:08;;;;;;;7.27;4.57;;;10.10;99.90;;;;;;5037654;28;20106;-82
2023/05/02 01:01:34;;;;;;;5.87;4.47;;;10.00;99.90;;;;;;5052424;28;20040;-81
2023/05/02 01:04:15;;;;;;;8.33;5.00;;;10.00;99.90;;;;;;5054474;28;20101;-85
2023/05/02 01:06:40;;;;;;;10.00;4.90;;;9.90;99.90;;;;;;5037340;28;20041;-82
2023/05/02 01:09:31;;;;;;;7.50;4.57;;;10.00;99.90;;;;;;5054029;28;20089;-83
2023/05/02 01:12:26;;;;;;;11.70;6.00;;;9.90;99.90;;;;;;5050743;28;20072;-84
2023/05/02 01:14:54;;;;;;;11.10;5.30;;;9.90;99.90;;;;;;5049888;28;20024;-84
2023/05/02 01:17:23;;;;;;;9.87;5.60;;;9.90;99.90;;;;;;5054243;28;20503;-84
2023/05/02 01:19:53;;;;;;;7.37;4.87;;;9.90;99.90;;;;;;5054399;28;20048;-83
2023/05/02 01:22:21;;;;;;;10.77;5.13;;;10.00;99.90;;;;;;5037671;28;20040;-84
2023/05/02 01:24:52;;;;;;;10.93;5.53;;;9.90;99.90;;;;;;5037894;28;20053;-84
2023/05/02 01:27:54;;;;;;;9.80;4.93;;;10.00;99.90;;;;;;5054240;28;20396;-84
2023/05/02 01:30:22;;;;;;;9.00;5.20;;;9.90;99.90;;;;;;5027468;28;20389;-84
2023/05/02 01:32:51;;;;;;;10.20;4.80;;;9.90;99.90;;;;;;5037391;28;20043;-84
2023/05/02 01:35:18;;;;;;;8.37;5.23;;;9.90;99.90;;;;;;5037808;28;20120;-83
2023/05/02 01:37:45;;;;;;;10.77;5.27;;;9.90;99.90;;;;;;5013170;28;20094;-83
2023/05/02 01:40:16;;;;;;;10.27;5.10;;;9.90;99.90;;;;;;5037510;28;20043;-85
2023/05/02 01:42:44;;;;;;;7.57;4.80;;;10.00;99.90;;;;;;5037452;28;20423;-84
2023/05/02 01:45:12;;;;;;;9.10;5.07;;;10.00;99.90;;;;;;5053949;28;20131;-83
2023/05/02 01:47:39;;;;;;;8.73;5.10;;;9.90;99.90;;;;;;5037725;28;20075;-85
2023/05/02 01:50:10;;;;;;;10.13;5.13;;;9.90;99.90;;;;;;5036292;28;20043;-84
2023/05/02 01:52:37;;;;;;;11.43;5.53;;;9.90;99.90;;;;;;5034567;28;20038;-85
2023/05/02 01:55:05;;;;;;;11.13;5.33;;;9.90;99.90;;;;;;5037400;28;20043;-85
2023/05/02 01:57:31;;;;;;;9.23;5.37;;;9.90;99.90;;;;;;5037221;28;20041;-85
2023/05/02 01:59:58;;;;;;;10.43;5.70;;;9.90;99.90;;;;;;5037376;28;20052;-84
2023/05/02 02:02:26;;;;;;;9.40;5.30;;;9.80;99.90;;;;;;5020705;28;20529;-84
2023/05/02 02:04:54;;;;;;;9.73;5.07;;;9.80;99.90;;;;;;5037141;28;20043;-84
2023/05/02 02:07:20;;;;;;;10.60;6.10;;;9.90;99.90;;;;;;5037895;28;20044;-86
2023/05/02 02:09:45;;;;;;;7.57;5.03;;;9.90;99.90;;;;;;5041219;28;20037;-85
2023/05/02 02:12:21;;;;;;;10.17;5.83;;;9.90;99.90;;;;;;5024659;28;20381;-85
2023/05/02 02:14:56;;;;;;;8.13;5.60;;;9.90;99.90;;;;;;5041383;28;20052;-85
2023/05/02 02:17:26;;;;;;;10.53;5.47;;;9.90;99.90;;;;;;5041050;28;20067;-86
2023/05/02 02:20:00;;;;;;;7.93;4.87;;;9.90;99.90;;;;;;5057388;28;20032;-84
2023/05/02 02:22:27;;;;;;;8.97;5.07;;;9.90;99.90;;;;;;5033104;28;20041;-85
2023/05/02 02:24:54;;;;;;;11.53;5.20;;;9.90;99.90;;;;;;5057229;28;20123;-83
2023/05/02 02:27:20;;;;;;;11.33;4.97;;;9.90;99.90;;;;;;5057343;28;20181;-83
2023/05/02 02:29:45;;;;;;;9.83;4.10;;;9.80;99.90;;;;;;5040923;28;20127;-81
2023/05/02 02:32:11;;;;;;;14.93;4.70;;;9.50;99.90;;;;;;5040640;28;20119;-84
2023/05/02 02:34:37;;;;;;;15.20;4.53;;;9.30;99.90;;;;;;5056967;28;20391;-82
2023/05/02 02:37:20;;;;;;;12.03;4.90;;;9.10;99.90;;;;;;5039932;28;20032;-80
2023/05/02 02:39:46;;;;;;;14.37;5.50;;;8.90;99.90;;;;;;5054274;28;20165;-80
2023/05/02 02:42:38;;;;;;;19.80;5.60;;;8.80;99.90;;;;;;5040261;28;20123;-83
2023/05/02 02:45:41;;;;;;;12.73;5.10;;;8.60;99.90;;;;;;5062835;28;20045;-83
2023/05/02 02:48:28;;;;;;;13.00;5.60;;;8.50;99.90;;;;;;5037560;28;20651;-84
2023/05/02 02:51:21;;;;;;;14.00;5.73;;;8.40;99.90;;;;;;5055287;28;20098;-83
2023/05/02 02:54:13;;;;;;;25.23;6.00;;;8.40;99.90;;;;;;5056682;28;20471;-83
2023/05/02 02:56:41;;;;;;;17.40;6.40;;;8.40;99.90;;;;;;5045052;28;20052;-84
2023/05/02 02:59:32;;;;;;;17.27;5.83;;;8.30;99.90;;;;;;5037428;28;20040;-81
2023/05/02 03:02:07;;;;;;;21.27;6.17;;;8.30;99.90;;;;;;5039837;28;20097;-83
2023/05/02 03:04:36;;;;;;;21.10;6.60;;;8.30;99.90;;;;;;5054998;28;20044;-81
2023/05/02 03:07:02;;;;;;;23.33;6.37;;;8.30;99.90;;;;;;5056143;28;20055;-86
2023/05/02 03:09:40;;;;;;;24.07;6.67;;;8.30;99.90;;;;;;5039531;28;20391;-82
2023/05/02 03:12:05;;;;;;;17.50;6.80;;;8.20;99.90;;;;;;5036703;28;20040;-82
2023/05/02 03:14:31;;;;;;;20.03;7.03;;;8.20;99.90;;;;;;5038950;28;20582;-82
2023/05/02 03:16:57;;;;;;;20.30;6.83;;;8.20;99.90;;;;;;5038862;28;20032;-80
2023/05/02 03:19:22;;;;;;;19.33;6.57;;;8.20;99.90;;;;;;5054777;28;20044;-81
2023/05/02 03:21:48;;;;;;;23.30;6.77;;;8.20;99.90;;;;;;5056057;28;20041;-85
2023/05/02 03:24:14;;;;;;;20.57;6.97;;;8.10;99.90;;;;;;5021140;28;20545;-82
2023/05/02 03:26:40;;;;;;;23.77;7.20;;;8.10;99.90;;;;;;5039480;28;20044;-82
2023/05/02 03:29:06;;;;;;;19.17;6.70;;;8.10;99.90;;;;;;5039483;28;20036;-82
2023/05/02 03:31:32;;;;;;;22.07;6.20;;;8.10;99.90;;;;;;5023338;28;20048;-82
2023/05/02 03:33:58;;;;;;;22.43;6.17;;;8.00;99.90;;;;;;5036955;28;20043;-83
2023/05/02 03:36:24;;;;;;;16.00;5.97;;;8.00;99.90;;;;;;5022997;28;20044;-82
2023/05/02 03:38:49;;;;;;;19.40;5.70;;;8.00;99.90;;;;;;5039483;28;20044;-84
2023/05/02 03:41:15;;;;;;;18.40;6.20;;;8.00;99.90;;;;;;5019609;28;20045;-85
2023/05/02 03:43:41;;;;;;;24.90;6.43;;;8.00;99.90;;;;;;5055248;28;20044;-85
2023/05/02 03:46:10;;;;;;;14.87;5.60;;;7.90;99.90;;;;;;5038607;28;20040;-83
2023/05/02 03:48:36;;;;;;;19.70;5.63;;;7.90;99.90;;;;;;5039078;28;20032;-83
2023/05/02 03:51:03;;;;;;;18.40;5.57;;;7.90;99.90;;;;;;5039170;28;20116;-83
2023/05/02 03:53:30;;;;;;;20.90;5.70;;;7.90;99.90;;;;;;5055559;28;20071;-82
2023/05/02 03:55:56;;;;;;;20.93;5.63;;;7.90;99.90;;;;;;5039187;28;20060;-83
2023/05/02 03:58:24;;;;;;;14.80;5.93;;;7.80;99.90;;;;;;5039210;28;20024;-85
2023/05/02 04:00:51;;;;;;;17.37;6.00;;;7.80;99.90;;;;;;5055878;28;20159;-80
2023/05/02 04:03:17;;;;;;;13.20;4.87;;;7.80;99.90;;;;;;5039149;28;20039;-84
2023/05/02 04:05:43;;;;;;;12.43;5.07;;;7.70;99.90;;;;;;5021853;28;20036;-79
2023/05/02 04:08:09;;;;;;;13.53;5.23;;;7.60;99.90;;;;;;5038401;28;20055;-81
2023/05/02 04:10:35;;;;;;;21.53;6.13;;;7.60;99.90;;;;;;5031354;28;20385;-82
2023/05/02 04:13:02;;;;;;;11.73;4.70;;;7.60;99.90;;;;;;5035299;28;20028;-82
2023/05/02 04:15:28;;;;;;;19.40;6.60;;;7.50;99.90;;;;;;5038092;28;20094;-84
2023/05/02 04:17:54;;;;;;;14.90;4.30;;;7.50;99.90;;;;;;5036605;28;20044;-83
2023/05/02 04:20:19;;;;;;;12.07;4.37;;;7.50;99.90;;;;;;5036379;28;20049;-84
2023/05/02 04:22:46;;;;;;;13.70;4.37;;;7.50;99.90;;;;;;5020645;28;20083;-82
2023/05/02 04:25:12;;;;;;;10.93;3.60;;;7.50;99.90;;;;;;5017371;28;20132;-83
2023/05/02 04:27:38;;;;;;;14.60;3.10;;;7.50;99.90;;;;;;5018761;28;20226;-83
2023/05/02 04:30:05;;;;;;;12.17;3.43;;;7.50;99.90;;;;;;5036095;28;20036;-83
2023/05/02 04:32:30;;;;;;;11.03;3.23;;;7.50;99.90;;;;;;5052643;28;20136;-82
2023/05/02 04:34:56;;;;;;;12.70;3.87;;;7.50;99.90;;;;;;5019236;28;20025;-82
2023/05/02 04:37:22;;;;;;;11.40;3.47;;;7.50;99.90;;;;;;5019818;28;20036;-83
2023/05/02 04:39:47;;;;;;;7.23;3.07;;;7.50;99.90;;;;;;5020280;28;20032;-84
2023/05/02 04:42:13;;;;;;;7.90;3.37;;;7.50;99.90;;;;;;5037008;28;20044;-83
2023/05/02 04:44:39;;;;;;;10.87;3.17;;;7.50;99.90;;;;;;5021576;28;20139;-83
2023/05/02 04:47:04;;;;;;;8.13;3.07;;;7.50;99.90;;;;;;5054057;28;20458;-83
2023/05/02 04:49:31;;;;;;;11.33;3.37;;;7.50;99.90;;;;;;5037721;28;20040;-82
2023/05/02 04:51:57;;;;;;;9.83;3.03;;;7.50;99.90;;;;;;5021031;28;20037;-84
2023/05/02 04:54:22;;;;;;;8.37;3.27;;;7.50;99.90;;;;;;5005274;28;20101;-83
2023/05/02 04:56:48;;;;;;;10.90;3.17;;;7.60;99.90;;;;;;5037975;28;20039;-84
2023/05/02 04:59:14;;;;;;;9.27;3.07;;;7.60;99.90;;;;;;5038134;28;20040;-85
2023/05/02 05:01:39;;;;;;;8.20;2.87;;;7.60;99.90;;;;;;5038119;28;20085;-83
2023/05/02 05:04:05;;;;;;;9.33;3.03;;;7.60;99.90;;;;;;5018502;28;20045;-84
2023/05/02 05:06:31;;;;;;;10.40;2.80;;;7.60;99.90;;;;;;5037305;28;20044;-81
2023/05/02 05:08:57;;;;;;;5.77;2.73;;;7.60;99.90;;;;;;5021051;28;20036;-83
2023/05/02 05:11:22;;;;;;;6.23;2.70;;;7.60;99.90;;;;;;5036957;28;20040;-81
2023/05/02 05:13:49;;;;;;;8.90;3.07;;;7.60;99.90;;;;;;5053413;28;20032;-81
2023/05/02 05:16:14;;;;;;;5.93;2.53;;;7.60;99.90;;;;;;5038388;28;20079;-83
2023/05/02 05:18:40;;;;;;;7.57;2.70;;;7.60;99.90;;;;;;5020946;28;20479;-82
2023/05/02 05:21:07;;;;;;;7.37;2.57;;;7.60;99.90;;;;;;5021236;28;20095;-82
2023/05/02 05:23:33;;;;;;;5.87;2.40;;;7.60;99.90;;;;;;5053998;28;20067;-83
2023/05/02 05:26:29;;;;;;;7.97;2.70;;;7.60;99.90;;;;;;5053694;28;20111;-83
2023/05/02 05:28:54;;;;;;;7.17;2.50;;;7.70;99.90;;;;;;5006367;28;20048;-82
2023/05/02 05:31:21;;;;;;;8.77;2.50;;;7.70;99.90;;;;;;5051103;28;20342;-83
2023/05/02 05:33:47;;;;;;;6.30;2.50;;;7.70;99.90;;;;;;5036839;28;20059;-83
2023/05/02 05:36:13;;;;;;;7.67;2.90;;;7.70;99.90;;;;;;5053446;28;20079;-84
2023/05/02 05:38:39;;;;;;;8.57;2.30;;;7.80;99.90;;;;;;5053120;28;20079;-81
2023/05/02 05:41:06;;;;;;;7.07;2.47;;;7.80;99.90;;;;;;5036369;28;20472;-82
2023/05/02 05:43:32;;;;;;;9.27;3.33;;;7.80;99.90;;;;;;5052455;28;20098;-82
2023/05/02 05:45:58;;;;;;;7.33;2.90;;;7.80;99.90;;;;;;5052721;28;20484;-81
2023/05/02 05:48:24;;;;;;;8.57;2.90;;;7.80;99.90;;;;;;5053195;28;20048;-83
2023/05/02 05:50:51;;;;;;;7.50;2.67;;;7.80;99.90;;;;;;5035981;28;20416;-82
2023/05/02 05:53:17;;;;;;;5.80;2.83;;;7.80;99.90;;;;;;5052886;28;20518;-81
2023/05/02 05:55:43;;;;;;;8.80;3.10;;;7.80;99.90;;;;;;5042934;28;20040;-82
2023/05/02 05:58:08;;;;;;;7.00;3.13;;;7.80;99.90;;;;;;5035592;28;20051;-83
2023/05/02 06:00:35;;;;;;;8.53;3.40;;;7.70;99.90;;;;;;5050947;28;20041;-82
2023/05/02 06:03:01;;;;;;;15.07;3.40;;;7.70;99.90;;;;;;5035065;28;20040;-84
2023/05/02 06:05:27;;;;;;;10.23;3.53;;;7.70;99.90;;;;;;5052403;28;20037;-83
2023/05/02 06:07:53;;;;;;;7.10;3.60;;;7.70;99.90;;;;;;5003975;28;20132;-83
2023/05/02 06:10:19;;;;;;;10.47;3.70;;;7.70;99.90;;;;;;5053470;28;20453;-83
2023/05/02 06:12:44;;;;;;;9.53;3.43;;;7.70;99.90;;;;;;5036206;28;20106;-84
2023/05/02 06:15:10;;;;;;;8.97;3.80;;;7.70;99.90;;;;;;5019868;28;20045;-80
2023/05/02 06:17:36;;;;;;;19.93;3.90;;;7.70;99.90;;;;;;5052589;28;20045;-80
2023/05/02 06:20:02;;;;;;;12.90;3.67;;;7.70;99.90;;;;;;5020021;28;20127;-80
2023/05/02 06:22:28;;;;;;;11.90;4.00;;;7.80;99.90;;;;;;5003567;28;20048;-79
2023/05/02 06:24:54;;;;;;;15.90;4.20;;;7.80;99.90;;;;;;5035761;28;20040;-80
2023/05/02 06:27:20;;;;;;;10.23;4.77;;;7.80;99.90;;;;;;5036124;28;20044;-80
2023/05/02 06:29:46;;;;;;;13.73;4.17;;;7.80;99.90;;;;;;5019412;28;20086;-80
2023/05/02 06:32:11;;;;;;;12.60;3.87;;;7.70;99.90;;;;;;5035725;28;20047;-81
2023/05/02 06:34:37;;;;;;;13.47;4.23;;;7.80;99.90;;;;;;5019167;28;20037;-80
2023/05/02 06:37:03;;;;;;;11.57;3.83;;;7.80;99.90;;;;;;5052380;28;20066;-80
2023/05/02 06:39:28;;;;;;;16.40;3.63;;;7.80;99.90;;;;;;5019789;28;20095;-80
2023/05/02 06:41:57;;;;;;;12.77;3.67;;;7.90;99.90;;;;;;5036334;28;20044;-80
2023/05/02 06:44:24;;;;;;;13.43;4.13;;;7.90;99.90;;;;;;5035768;28;20068;-80
2023/05/02 06:46:49;;;;;;;10.27;3.80;;;7.80;99.90;;;;;;5052455;28;20404;-79
2023/05/02 06:49:15;;;;;;;9.60;3.60;;;7.90;99.90;;;;;;5019892;28;20045;-82
2023/05/02 06:51:41;;;;;;;9.50;3.77;;;7.90;99.90;;;;;;5019969;28;20037;-81
2023/05/02 06:54:07;;;;;;;7.63;3.53;;;7.90;99.90;;;;;;5020250;28;20078;-79
2023/05/02 06:56:33;;;;;;;12.67;3.80;;;8.00;99.90;;;;;;5039543;28;20499;-80
2023/05/02 06:58:59;;;;;;;8.37;4.03;;;8.00;99.90;;;;;;5022922;28;20119;-80
2023/05/02 07:01:25;;;;;;;14.23;3.70;;;8.00;99.90;;;;;;5055480;28;20044;-81
2023/05/02 07:03:51;;;;;;;9.23;3.93;;;8.10;99.90;;;;;;5038813;28;20120;-81
2023/05/02 07:06:17;;;;;;;9.70;4.13;;;8.00;99.90;;;;;;5039196;28;20036;-79
2023/05/02 07:08:43;;;;;;;8.17;3.57;;;8.00;99.90;;;;;;5022033;28;20040;-80
2023/05/02 07:11:09;;;;;;;8.03;3.53;;;8.00;99.90;;;;;;5039421;28;20721;-81
2023/05/02 07:13:34;;;;;;;11.33;3.60;;;8.10;99.90;;;;;;5022602;28;20129;-83
2023/05/02 07:16:00;;;;;;;9.20;3.50;;;8.10;99.90;;;;;;5019715;28;20083;-83
2023/05/02 07:18:26;;;;;;;8.77;3.47;;;8.10;99.90;;;;;;5023029;28;20051;-82
2023/05/02 07:20:53;;;;;;;11.20;3.83;;;8.20;99.90;;;;;;5022875;28;20090;-81
2023/05/02 07:23:19;;;;;;;6.77;3.03;;;8.20;99.90;;;;;;5039578;28;20467;-83
2023/05/02 07:25:47;;;;;;;10.13;3.63;;;8.20;99.90;;;;;;5039117;28;20098;-81
2023/05/02 07:28:12;;;;;;;12.97;3.73;;;8.30;99.90;;;;;;5055845;28;20041;-83
2023/05/02 07:30:38;;;;;;;6.50;3.07;;;8.30;99.90;;;;;;5006184;28;20035;-82
2023/05/02 07:33:04;;;;;;;6.67;3.93;;;8.30;99.90;;;;;;5055185;28;20032;-82
2023/05/02 07:35:29;;;;;;;9.40;3.30;;;8.30;99.90;;;;;;5038374;28;20048;-82
2023/05/02 07:37:55;;;;;;;8.47;3.83;;;8.40;99.90;;;;;;5049079;28;20042;-83
2023/05/02 07:40:21;;;;;;;9.13;3.80;;;8.30;99.90;;;;;;5033160;28;20109;-81
2023/05/02 07:42:47;;;;;;;11.30;3.40;;;8.30;99.90;;;;;;5038330;28;20048;-83
2023/05/02 07:45:13;;;;;;;7.10;3.50;;;8.30;99.90;;;;;;5038264;28;20044;-82
2023/05/02 07:47:39;;;;;;;8.03;3.33;;;8.40;99.90;;;;;;5053038;28;20094;-82
2023/05/02 07:50:05;;;;;;;11.00;3.50;;;8.50;99.90;;;;;;5038710;28;20070;-82
2023/05/02 07:52:31;;;;;;;10.93;3.30;;;8.60;99.90;;;;;;5052407;28;20056;-84
2023/05/02 07:54:57;;;;;;;8.83;3.10;;;8.80;99.90;;;;;;5051409;28;20435;-83
2023/05/02 07:57:22;;;;;;;9.50;3.20;;;9.00;99.90;;;;;;5034593;28;20037;-83
2023/05/02 07:59:48;;;;;;;9.97;3.20;;;9.10;99.90;;;;;;5017997;28;20071;-80
2023/05/02 08:02:16;;;;;;;9.37;3.00;;;9.10;99.90;;;;;;5034442;28;20105;-80
2023/05/02 08:04:42;;;;;;;8.37;3.17;;;9.00;99.90;;;;;;5050898;28;20075;-81
2023/05/02 08:07:07;;;;;;;8.60;3.10;;;9.10;99.90;;;;;;5049534;28;20068;-79
2023/05/02 08:09:33;;;;;;;10.53;3.30;;;9.20;99.90;;;;;;5049698;28;20052;-80
2023/05/02 08:12:01;;;;;;;7.67;3.37;;;9.20;99.90;;;;;;5050011;28;20048;-80
2023/05/02 08:14:27;;;;;;;7.30;3.40;;;9.30;99.90;;;;;;5034925;28;20079;-80
2023/05/02 08:16:53;;;;;;;9.57;3.13;;;9.30;99.90;;;;;;5018353;28;20048;-79
2023/05/02 08:19:19;;;;;;;8.03;3.20;;;9.40;99.90;;;;;;5049932;28;20098;-79
2023/05/02 08:21:44;;;;;;;8.00;3.60;;;9.30;99.90;;;;;;5035677;28;20068;-80
2023/05/02 08:24:10;;;;;;;11.13;3.33;;;9.40;99.90;;;;;;5016621;28;20049;-80
2023/05/02 08:26:36;;;;;;;10.73;3.37;;;9.40;99.90;;;;;;4999377;28;20458;-78
2023/05/02 08:29:03;;;;;;;8.03;3.37;;;9.50;99.90;;;;;;5030956;28;20036;-78
2023/05/02 08:31:29;;;;;;;8.80;3.50;;;9.50;99.90;;;;;;5049227;28;20048;-79
2023/05/02 08:33:55;;;;;;;7.60;3.07;;;9.40;99.90;;;;;;5018532;28;20051;-80
2023/05/02 08:36:21;;;;;;;11.50;3.23;;;9.30;99.90;;;;;;5015880;28;20711;-81
2023/05/02 08:38:48;;;;;;;10.03;3.50;;;9.30;99.90;;;;;;5049442;28;20364;-79
2023/05/02 08:41:16;;;;;;;10.70;3.73;;;9.20;99.90;;;;;;5048680;28;20036;-78
2023/05/02 08:43:42;;;;;;;7.67;3.20;;;9.30;99.90;;;;;;5048549;28;20052;-78
2023/05/02 08:46:10;;;;;;;11.07;3.87;;;9.20;99.90;;;;;;5048729;28;20074;-79
2023/05/02 08:48:38;;;;;;;9.37;4.10;;;9.20;99.90;;;;;;5048480;28;20044;-81
2023/05/02 08:51:08;;;;;;;14.63;3.80;;;9.30;99.90;;;;;;5031186;28;20400;-76
2023/05/02 08:53:35;;;;;;;13.17;3.63;;;9.20;99.90;;;;;;5053077;28;20045;-77
2023/05/02 08:56:01;;;;;;;8.67;3.40;;;9.20;99.90;;;;;;5036420;28;20048;-78
2023/05/02 08:58:27;;;;;;;7.33;3.47;;;9.20;99.90;;;;;;5049382;28;20044;-83
2023/05/02 09:00:55;;;;;;;10.43;3.70;;;9.20;99.90;;;;;;5037783;28;20067;-83
2023/05/02 09:03:32;;;;;;;11.10;3.20;;;9.40;99.90;;;;;;5053313;28;20511;-79
2023/05/02 09:06:08;;;;;;;9.90;3.10;;;9.50;99.90;;;;;;5053235;28;20040;-83
2023/05/02 09:08:39;;;;;;;8.37;3.40;;;9.70;99.90;;;;;;5052541;28;20059;-78
2023/05/02 09:11:07;;;;;;;8.20;2.60;;;9.70;99.90;;;;;;5034795;28;20436;-81
2023/05/02 09:13:47;;;;;;;6.70;3.17;;;9.60;99.90;;;;;;5051878;28;20048;-76
2023/05/02 09:16:24;;;;;;;7.60;2.60;;;9.60;99.90;;;;;;5042139;28;20055;-75
2023/05/02 09:18:57;;;;;;;3.73;1.93;;;9.60;99.90;;;;;;5049210;28;20047;-75
2023/05/02 09:21:25;;;;;;;3.10;1.80;;;9.60;99.90;;;;;;5051521;28;20040;-75
2023/05/02 09:23:56;;;;;;;5.93;2.10;;;9.70;99.90;;;;;;5051670;28;20056;-75
2023/05/02 09:26:26;;;;;;;9.38;2.05;;;9.70;99.90;;;;;;5021487;28;20040;-85
2023/05/02 09:28:55;;;;;;;5.93;2.20;;;9.70;99.90;;;;;;5038240;28;20120;-85
2023/05/02 09:31:26;;;;;;;5.03;1.93;;;9.80;99.90;;;;;;5037361;28;20058;-84
2023/05/02 09:33:52;;;;;;;5.53;2.10;;;9.80;99.90;;;;;;5087627;28;20037;-82
2023/05/02 09:36:19;;;;;;;6.73;1.90;;;9.80;99.90;;;;;;5050177;28;20060;-83
2023/05/02 09:38:47;;;;;;;5.53;1.70;;;9.80;99.90;;;;;;5020690;28;20041;-84
2023/05/02 09:41:13;;;;;;;3.73;1.83;;;9.70;99.90;;;;;;5036803;28;20041;-83
2023/05/02 09:43:40;;;;;;;3.13;1.90;;;9.70;99.90;;;;;;5053670;28;20051;-84
2023/05/02 09:46:07;;;;;;;2.10;1.53;;;9.90;99.90;;;;;;5037074;28;20070;-84
2023/05/02 09:48:55;;;;;;;3.13;1.40;;;10.00;99.90;;;;;;5037455;28;20053;-84
2023/05/02 09:51:22;;;;;;;2.57;1.60;;;10.20;99.90;;;;;;5053896;28;20040;-85
2023/05/02 09:53:48;;;;;;;5.40;3.20;;;10.40;99.90;;;;;;5053746;28;20042;-83
2023/05/02 09:56:14;;;;;;;8.83;1.97;;;10.50;99.90;;;;;;5053918;28;20052;-85
2023/05/02 09:58:40;;;;;;;3.77;1.73;;;10.50;99.90;;;;;;5053622;28;20041;-83
2023/05/02 10:01:06;;;;;;;5.40;1.70;;;10.50;99.90;;;;;;5037061;28;20036;-82
2023/05/02 10:03:36;;;;;;;3.13;1.80;;;10.60;99.90;;;;;;5037730;28;20103;-85
2023/05/02 10:06:03;;;;;;;3.70;1.70;;;10.70;99.90;;;;;;5036949;28;20083;-83
2023/05/02 10:08:32;;;;;;;2.13;1.53;;;10.70;99.90;;;;;;5053633;28;20043;-84
2023/05/02 10:10:59;;;;;;;6.13;1.70;;;10.70;99.90;;;;;;5036234;28;20039;-84
2023/05/02 10:13:31;;;;;;;2.87;1.60;;;10.60;99.90;;;;;;5042299;28;20047;-83
2023/05/02 10:15:57;;;;;;;3.80;1.35;;;10.70;99.90;;;;;;5053528;28;20051;-84
2023/05/02 10:18:27;;;;;;;3.67;2.00;;;10.60;99.90;;;;;;5053202;28;20484;-83
2023/05/02 10:21:05;;;;;;;6.67;1.93;;;10.50;96.70;;;;;;5053179;28;20085;-83
2023/05/02 10:23:31;;;;;;;3.50;1.50;;;10.60;99.90;;;;;;5053477;28;20055;-85
2023/05/02 10:25:58;;;;;;;3.77;1.50;;;10.60;99.90;;;;;;5037047;28;20045;-83
2023/05/02 10:28:25;;;;;;;3.67;1.60;;;10.60;99.90;;;;;;5054896;28;20052;-83
2023/05/02 10:30:52;;;;;;;4.10;1.70;;;10.60;99.90;;;;;;5040819;28;20483;-84
2023/05/02 10:33:20;;;;;;;3.80;1.80;;;10.50;99.90;;;;;;5057449;28;20036;-83
2023/05/02 10:35:46;;;;;;;3.50;1.80;;;10.40;99.90;;;;;;5040882;28;20037;-84
2023/05/02 10:38:19;;;;;;;2.53;1.60;;;10.20;99.90;;;;;;5057296;28;20070;-83
2023/05/02 10:40:59;;;;;;;5.93;2.27;;;10.30;99.90;;;;;;5057112;28;20097;-84
2023/05/02 10:43:30;;;;;;;3.70;1.77;;;10.40;99.90;;;;;;5057165;28;20564;-82
2023/05/02 10:45:57;;;;;;;11.80;5.25;;;10.40;99.90;;;;;;5057719;28;20380;-83
2023/05/02 10:48:26;;;;;;;3.83;1.70;;;10.40;99.90;;;;;;5040760;28;20083;-83
2023/05/02 10:50:54;;;;;;;6.03;1.90;;;10.60;99.90;;;;;;5057008;28;20442;-82
2023/05/02 10:53:27;;;;;;;3.77;1.70;;;10.70;99.90;;;;;;5040492;28;20051;-83
2023/05/02 10:56:14;;;;;;;3.30;1.40;;;10.80;99.90;;;;;;5020702;28;20538;-82
2023/05/02 10:58:41;;;;;;;2.83;1.67;;;10.90;99.90;;;;;;5050909;28;20040;-83
2023/05/02 11:01:29;;;;;;;3.60;1.40;;;11.00;99.90;;;;;;5038307;28;20051;-83
2023/05/02 11:04:02;;;;;;;6.87;1.60;;;11.30;99.90;;;;;;5040293;28;20040;-83
2023/05/02 11:06:32;;;;;;;3.33;1.67;;;11.10;99.90;;;;;;5040179;28;20040;-84
2023/05/02 11:09:16;;;;;;;4.63;1.50;;;10.90;99.90;;;;;;5056878;28;20044;-84
2023/05/02 11:11:47;;;;;;;2.67;1.40;;;10.80;99.90;;;;;;5056984;28;20044;-84
2023/05/02 11:14:38;;;;;;;4.27;2.20;;;10.60;99.90;;;;;;5040130;28;20047;-83
2023/05/02 11:17:06;;;;;;;2.63;1.60;;;10.50;99.90;;;;;;5040324;28;20448;-83
2023/05/02 11:19:38;;;;;;;3.33;1.80;;;10.40;99.90;;;;;;5040025;28;20056;-85
2023/05/02 11:22:25;;;;;;;4.78;1.90;;;10.40;99.90;;;;;;5056579;28;20045;-82
2023/05/02 11:24:51;;;;;;;4.30;1.80;;;10.30;99.90;;;;;;5040179;28;20135;-83
2023/05/02 11:27:29;;;;;;;4.13;1.50;;;10.20;99.90;;;;;;5056677;28;20144;-84
2023/05/02 11:30:08;;;;;;;2.47;1.70;;;10.30;99.90;;;;;;5056363;28;20037;-84
2023/05/02 11:32:48;;;;;;;4.60;1.27;;;10.40;99.90;;;;;;5041111;28;20040;-85
2023/05/02 11:35:19;;;;;;;5.00;1.60;;;10.50;99.90;;;;;;5056602;28;20062;-86
2023/05/02 11:37:55;;;;;;;4.20;1.47;;;10.70;99.90;;;;;;5056313;28;20122;-85
2023/05/02 11:40:21;;;;;;;4.60;1.33;;;11.10;99.90;;;;;;5038783;28;20049;-83
2023/05/02 11:42:46;;;;;;;5.13;1.60;;;11.00;99.90;;;;;;5054393;28;20056;-84
2023/05/02 11:45:12;;;;;;;4.70;1.60;;;11.00;99.90;;;;;;5037590;28;20032;-83
2023/05/02 11:47:40;;;;;;;4.27;1.47;;;10.90;99.90;;;;;;5037568;28;20036;-85
2023/05/02 11:50:06;;;;;;;2.57;1.40;;;10.80;99.90;;;;;;5037309;28;20079;-84
2023/05/02 11:52:41;;;;;;;4.37;1.70;;;10.70;99.90;;;;;;5052743;28;20048;-82
2023/05/02 11:55:12;;;;;;;2.17;1.43;;;10.60;99.90;;;;;;5055503;28;20384;-84
2023/05/02 11:57:38;;;;;;;3.50;1.60;;;10.70;99.90;;;;;;5055184;28;20059;-83
2023/05/02 12:00:05;;;;;;;4.57;1.80;;;10.70;99.90;;;;;;5038091;28;20617;-83
2023/05/02 12:02:39;;;;;;;4.63;1.70;;;10.70;99.90;;;;;;5038545;28;20392;-83
2023/05/02 12:05:06;;;;;;;4.23;1.60;;;10.80;99.90;;;;;;5055428;28;20423;-85
2023/05/02 12:07:44;;;;;;;3.10;1.70;;;10.80;99.90;;;;;;5018278;28;20075;-85
2023/05/02 12:10:11;;;;;;;3.57;1.50;;;10.70;99.90;;;;;;5019937;28;20044;-83
2023/05/02 12:12:38;;;;;;;6.23;1.70;;;10.70;99.90;;;;;;5054907;28;20067;-83
2023/05/02 12:15:05;;;;;;;4.33;2.23;;;10.70;99.90;;;;;;5055261;28;20063;-84
2023/05/02 12:17:32;;;;;;;6.83;2.10;;;10.70;99.90;;;;;;5038348;28;20506;-85
2023/05/02 12:19:58;;;;;;;8.80;2.07;;;10.80;99.90;;;;;;5055171;28;20047;-84
2023/05/02 12:22:24;;;;;;;3.67;1.60;;;10.80;99.90;;;;;;5020231;28;20155;-85
2023/05/02 12:24:52;;;;;;;3.27;1.70;;;10.80;99.90;;;;;;5038123;28;20504;-85
2023/05/02 12:27:18;;;;;;;4.77;1.80;;;10.90;99.90;;;;;;5022229;28;20094;-82
2023/05/02 12:29:45;;;;;;;4.83;1.60;;;11.00;99.90;;;;;;5055452;28;20036;-83
2023/05/02 12:32:12;;;;;;;3.60;1.70;;;11.10;99.90;;;;;;5055158;28;20044;-83
2023/05/02 12:34:38;;;;;;;4.60;1.67;;;11.10;99.90;;;;;;5038444;28;20081;-83
2023/05/02 12:37:05;;;;;;;5.73;2.13;;;11.20;99.90;;;;;;5055036;28;20048;-84
2023/05/02 12:39:42;;;;;;;5.63;1.87;;;11.20;99.90;;;;;;5038228;28;20052;-84
2023/05/02 12:42:12;;;;;;;5.07;1.70;;;11.10;99.90;;;;;;5037463;28;20044;-83
2023/05/02 12:44:40;;;;;;;3.60;1.70;;;11.00;99.90;;;;;;5038271;28;20044;-83
2023/05/02 12:47:07;;;;;;;9.27;1.97;;;10.90;99.90;;;;;;5038510;28;20048;-85
2023/05/02 12:49:46;;;;;;;7.57;1.80;;;10.80;99.90;;;;;;5053383;28;20043;-83
2023/05/02 12:52:12;;;;;;;2.70;1.47;;;10.80;99.90;;;;;;5022074;28;20553;-84
2023/05/02 12:54:38;;;;;;;3.40;1.40;;;10.80;99.90;;;;;;5055107;28;20071;-84